createdAt,value
2019-05-11T00:03:39.082Z,76.66
2019-05-11T00:08:44.482Z,76.81
2019-05-11T00:13:50.012Z,76.81
2019-05-11T00:18:55.365Z,77.33
2019-05-11T00:24:00.670Z,76.81
2019-05-11T00:29:06.479Z,76.13
2019-05-11T00:34:11.876Z,76.36
2019-05-11T00:39:17.420Z,76.54
2019-05-11T00:44:23.478Z,76.55
2019-05-11T00:49:28.961Z,76.33
2019-05-11T00:54:34.084Z,74.96
2019-05-11T00:59:39.735Z,75.22
2019-05-11T01:04:45.096Z,75.87
2019-05-11T01:09:50.393Z,76.55
2019-05-11T01:14:55.691Z,77.36
2019-05-11T01:20:01.043Z,76.39
2019-05-11T01:25:07.435Z,76.58
2019-05-11T01:30:13.638Z,76.71
2019-05-11T01:35:18.936Z,77.01
2019-05-11T01:40:24.596Z,76.97
2019-05-11T01:45:30.263Z,76.79
2019-05-11T01:50:35.613Z,76.24
2019-05-11T01:55:40.775Z,76.23
2019-05-11T02:00:46.433Z,76.62
2019-05-11T02:05:52.815Z,76.78
2019-05-11T02:11:14.611Z,76.57
2019-05-11T02:16:05.795Z,76.83
2019-05-11T02:21:11.658Z,77.36
2019-05-11T02:26:18.026Z,77.22
2019-05-11T02:31:23.509Z,76.73
2019-05-11T02:36:29.136Z,77.19
2019-05-11T02:41:37.412Z,76.56
2019-05-11T02:46:42.834Z,76.38
2019-05-11T02:51:48.180Z,76.29
2019-05-11T02:56:53.479Z,76.48
2019-05-11T03:01:59.128Z,76.60
2019-05-11T03:07:04.541Z,76.56
2019-05-11T03:12:09.928Z,76.53
2019-05-11T03:17:23.534Z,76.75
2019-05-11T03:22:29.068Z,76.84
2019-05-11T03:27:34.280Z,76.57
2019-05-11T03:32:39.572Z,76.60
2019-05-11T03:37:44.844Z,76.29
2019-05-11T03:42:50.299Z,76.97
2019-05-11T03:47:56.073Z,76.38
2019-05-11T03:53:01.336Z,75.79
2019-05-11T03:58:06.576Z,75.69
2019-05-11T04:03:11.922Z,75.79
2019-05-11T04:08:17.395Z,75.29
2019-05-11T04:13:22.869Z,75.45
2019-05-11T04:18:28.482Z,75.26
2019-05-11T04:23:33.857Z,74.99
2019-05-11T04:28:39.356Z,74.36
2019-05-11T04:33:44.886Z,74.08
2019-05-11T04:38:50.205Z,74.01
2019-05-11T04:43:55.434Z,74.31
2019-05-11T04:49:01.121Z,74.52
2019-05-11T04:54:06.301Z,73.63
2019-05-11T04:59:11.498Z,73.96
2019-05-11T05:04:17.038Z,73.73
2019-05-11T05:09:22.435Z,72.79
2019-05-11T05:14:28.056Z,73.09
2019-05-11T05:19:33.417Z,72.08
2019-05-11T05:24:38.721Z,72.33
2019-05-11T05:29:44.023Z,71.84
2019-05-11T05:34:49.128Z,71.63
2019-05-11T05:39:54.349Z,72.02
2019-05-11T05:44:59.569Z,71.96
2019-05-11T05:50:07.061Z,71.74
2019-05-11T05:55:12.491Z,71.73
2019-05-11T06:00:17.871Z,71.65
2019-05-11T06:05:23.014Z,71.91
2019-05-11T06:10:28.503Z,70.69
2019-05-11T06:15:33.892Z,69.72
2019-05-11T06:20:39.033Z,69.44
2019-05-11T06:25:44.272Z,68.96
2019-05-11T06:30:49.425Z,67.66
2019-05-11T06:35:55.056Z,66.73
2019-05-11T06:41:00.444Z,66.57
2019-05-11T06:46:05.688Z,66.37
2019-05-11T06:51:11.512Z,65.85
2019-05-11T06:56:16.750Z,65.84
2019-05-11T07:01:22.011Z,65.69
2019-05-11T07:06:30.509Z,64.91
2019-05-11T07:11:34.430Z,64.97
2019-05-11T07:16:39.746Z,65.32
2019-05-11T07:21:44.942Z,65.36
2019-05-11T07:26:50.249Z,65.64
2019-05-11T07:31:57.897Z,64.79
2019-05-11T07:37:02.655Z,64.33
2019-05-11T07:42:08.014Z,64.30
2019-05-11T07:47:13.355Z,63.97
2019-05-11T07:52:19.050Z,65.00
2019-05-11T07:57:24.385Z,65.59
2019-05-11T08:02:32.310Z,65.40
2019-05-11T08:07:38.036Z,65.90
2019-05-11T08:12:43.697Z,66.02
2019-05-11T08:17:49.149Z,65.89
2019-05-11T08:22:55.858Z,65.56
2019-05-11T08:28:01.248Z,64.76
2019-05-11T08:33:09.698Z,64.73
2019-05-11T08:38:14.932Z,64.35
2019-05-11T08:43:20.229Z,63.44
2019-05-11T08:48:25.494Z,61.85
2019-05-11T08:53:31.027Z,62.86
2019-05-11T08:58:38.012Z,62.58
2019-05-11T09:03:43.567Z,61.68
2019-05-11T09:08:49.437Z,60.93
2019-05-11T09:13:57.714Z,60.15
2019-05-11T09:19:02.274Z,59.55
2019-05-11T09:24:08.839Z,59.51
2019-05-11T09:29:14.260Z,59.72
2019-05-11T09:34:19.743Z,59.04
2019-05-11T09:39:27.898Z,59.44
2019-05-11T09:44:32.761Z,59.73
2019-05-11T09:49:46.569Z,60.63
2019-05-11T09:54:45.441Z,61.63
2019-05-11T09:59:50.701Z,60.94
2019-05-11T10:04:57.843Z,60.16
2019-05-11T10:10:03.936Z,59.96
2019-05-11T10:15:09.705Z,58.73
2019-05-11T10:20:14.940Z,57.69
2019-05-11T10:25:20.583Z,58.63
2019-05-11T10:30:28.057Z,58.27
2019-05-11T10:35:33.126Z,58.46
2019-05-11T10:40:39.226Z,56.08
2019-05-11T10:45:44.733Z,56.08
2019-05-11T10:50:50.127Z,55.63
2019-05-11T10:55:57.986Z,55.44
2019-05-11T11:01:02.629Z,53.42
2019-05-11T11:06:08.580Z,53.38
2019-05-11T11:11:14.978Z,53.51
2019-05-11T11:16:35.509Z,53.42
2019-05-11T11:21:27.926Z,53.15
2019-05-11T11:26:33.457Z,53.03
2019-05-11T11:31:38.784Z,53.45
2019-05-11T11:36:44.205Z,53.36
2019-05-11T11:41:49.674Z,51.83
2019-05-11T11:46:55.510Z,50.53
2019-05-11T11:52:01.120Z,48.97
2019-05-11T11:57:07.702Z,48.71
2019-05-11T12:02:13.256Z,47.46
2019-05-11T12:07:18.610Z,48.13
2019-05-11T12:12:23.981Z,48.50
2019-05-11T12:17:29.705Z,47.12
2019-05-11T12:22:34.983Z,46.48
2019-05-11T12:27:40.280Z,47.13
2019-05-11T12:32:49.777Z,46.27
2019-05-11T12:37:54.996Z,46.06
2019-05-11T12:43:00.280Z,45.08
2019-05-11T12:48:05.488Z,44.12
2019-05-11T12:53:10.860Z,43.76
2019-05-11T12:58:18.171Z,48.46
2019-05-11T13:03:23.412Z,48.54
2019-05-11T13:08:28.798Z,49.20
2019-05-11T13:13:34.115Z,46.82
2019-05-11T13:18:39.334Z,45.88
2019-05-11T13:23:44.633Z,42.54
2019-05-11T13:28:50.035Z,36.97
2019-05-11T13:33:55.268Z,35.36
2019-05-11T13:39:00.740Z,36.48
2019-05-11T13:44:08.019Z,36.18
2019-05-11T13:49:13.445Z,42.46
2019-05-11T13:54:18.774Z,47.64
2019-05-11T13:59:24.494Z,44.99
2019-05-11T14:04:29.668Z,42.59
2019-05-11T14:09:35.219Z,40.46
2019-05-11T14:14:40.320Z,39.67
2019-05-11T14:19:45.531Z,40.82
2019-05-11T14:24:50.732Z,41.83
2019-05-11T14:29:57.900Z,40.44
2019-05-11T14:35:03.016Z,41.12
2019-05-11T14:40:09.120Z,41.44
2019-05-11T14:45:14.480Z,39.37
2019-05-11T14:50:19.718Z,38.51
2019-05-11T14:55:24.997Z,45.98
2019-05-11T15:00:30.570Z,46.41
2019-05-11T15:05:37.902Z,49.69
2019-05-11T15:10:43.343Z,48.48
2019-05-11T15:15:49.002Z,47.37
2019-05-11T15:20:54.540Z,45.53
2019-05-11T15:25:59.831Z,41.79
2019-05-11T15:31:07.879Z,38.54
2019-05-11T15:36:13.090Z,37.10
2019-05-11T15:41:21.009Z,36.61
2019-05-11T15:46:28.232Z,36.61
2019-05-11T15:51:33.457Z,34.80
2019-05-11T15:56:38.871Z,38.39
2019-05-11T16:01:44.527Z,40.00
2019-05-11T16:06:49.936Z,42.55
2019-05-11T16:11:55.439Z,46.17
2019-05-11T16:17:02.094Z,47.60
2019-05-11T16:22:09.889Z,49.26
2019-05-11T16:27:14.648Z,49.26
2019-05-11T16:32:20.425Z,51.68
2019-05-11T16:37:25.668Z,52.11
2019-05-11T16:42:32.025Z,51.55
2019-05-11T16:47:39.109Z,52.08
2019-05-11T16:52:44.538Z,52.62
2019-05-11T16:57:49.778Z,52.60
2019-05-11T17:02:57.523Z,51.74
2019-05-11T17:08:02.548Z,53.51
2019-05-11T17:13:08.620Z,54.80
2019-05-11T17:18:14.087Z,55.47
2019-05-11T17:23:19.535Z,56.32
2019-05-11T17:28:24.755Z,56.19
2019-05-11T17:33:30.817Z,56.67
2019-05-11T17:38:38.734Z,56.49
2019-05-11T17:43:43.356Z,57.21
2019-05-11T17:48:50.288Z,57.85
2019-05-11T17:53:55.635Z,57.97
2019-05-11T17:59:00.694Z,58.63
2019-05-11T18:04:08.064Z,59.71
2019-05-11T18:09:12.906Z,59.56
2019-05-11T18:14:17.945Z,59.77
2019-05-11T18:19:23.298Z,59.84
2019-05-11T18:24:29.890Z,60.11
2019-05-11T18:29:35.367Z,60.05
2019-05-11T18:34:40.707Z,60.80
2019-05-11T18:39:48.303Z,61.04
2019-05-11T18:44:53.159Z,61.30
2019-05-11T18:49:58.856Z,61.40
2019-05-11T18:55:04.723Z,61.90
2019-05-11T19:00:10.758Z,62.42
2019-05-11T19:05:17.969Z,62.08
2019-05-11T19:10:23.332Z,62.39
2019-05-11T19:15:28.626Z,62.66
2019-05-11T19:20:45.452Z,62.54
2019-05-11T19:25:41.403Z,62.65
2019-05-11T19:30:48.852Z,63.96
2019-05-11T19:35:53.832Z,63.50
2019-05-11T19:40:59.274Z,63.56
2019-05-11T19:46:04.689Z,63.75
2019-05-11T19:51:11.987Z,63.28
2019-05-11T19:56:18.278Z,62.88
2019-05-11T20:01:23.781Z,62.84
2019-05-11T20:06:29.125Z,64.03
2019-05-11T20:11:34.436Z,63.55
2019-05-11T20:16:39.515Z,64.32
2019-05-11T20:21:44.775Z,64.11
2019-05-11T20:26:50.059Z,64.67
2019-05-11T20:31:57.719Z,66.55
2019-05-11T20:37:02.589Z,65.90
2019-05-11T20:42:08.747Z,65.55
2019-05-11T20:47:14.242Z,65.75
2019-05-11T20:52:19.483Z,67.03
2019-05-11T20:57:24.756Z,66.57
2019-05-11T21:02:30.138Z,66.91
2019-05-11T21:07:35.608Z,67.61
2019-05-11T21:12:40.895Z,67.74
2019-05-11T21:17:48.162Z,68.58
2019-05-11T21:22:53.290Z,68.83
2019-05-11T21:27:58.772Z,68.85
2019-05-11T21:33:04.564Z,68.37
2019-05-11T21:38:10.107Z,68.20
2019-05-11T21:43:15.540Z,68.15
2019-05-11T21:48:20.657Z,68.49
2019-05-11T21:53:28.643Z,67.96
2019-05-11T21:58:33.499Z,68.09
2019-05-11T22:03:38.645Z,67.89
2019-05-11T22:08:44.003Z,68.42
2019-05-11T22:13:49.460Z,68.19
2019-05-11T22:18:55.023Z,68.31
2019-05-11T22:24:00.992Z,68.29
2019-05-11T22:29:07.846Z,68.04
2019-05-11T22:34:13.385Z,68.35
2019-05-11T22:39:20.895Z,68.45
2019-05-11T22:44:27.746Z,68.98
2019-05-11T22:49:32.602Z,68.60
2019-05-11T22:54:38.412Z,68.66
2019-05-11T22:59:44.293Z,68.70
2019-05-11T23:04:49.702Z,68.39
2019-05-11T23:09:57.656Z,68.75
2019-05-11T23:15:08.055Z,69.13
2019-05-11T23:20:14.467Z,69.38
2019-05-11T23:25:20.143Z,69.40
2019-05-11T23:30:27.921Z,69.47
2019-05-11T23:35:33.422Z,69.24
2019-05-11T23:40:39.091Z,68.99
2019-05-11T23:45:44.751Z,69.59
2019-05-11T23:50:50.221Z,68.94
2019-05-11T23:55:57.917Z,69.26
